createdAt,value
2022-12-01T13:47:39.933Z,90.60
2022-12-01T13:50:55.093Z,90.30
2022-12-01T13:54:12.714Z,90.70
2022-12-01T13:57:26.126Z,90.80
2022-12-01T14:00:35.283Z,90.40
2022-12-01T14:03:42.104Z,90.50
2022-12-01T14:06:49.967Z,90.10
2022-12-01T14:09:51.840Z,90.40
2022-12-01T14:12:51.121Z,90.20
2022-12-01T14:15:56.988Z,90.10
2022-12-01T14:18:58.230Z,89.90
2022-12-01T14:21:56.253Z,90.00
2022-12-01T14:24:54.574Z,89.40
2022-12-01T14:27:55.901Z,90.70
2022-12-01T14:31:04.671Z,91.10
2022-12-01T14:34:15.757Z,91.00
2022-12-01T14:37:23.472Z,90.70
2022-12-01T14:40:25.436Z,90.90
2022-12-01T14:43:39.731Z,90.50
2022-12-01T14:46:45.609Z,91.60
2022-12-01T14:50:02.377Z,90.70
2022-12-01T14:53:08.418Z,91.40
2022-12-01T14:56:15.636Z,92.40
2022-12-01T14:59:23.231Z,91.90
2022-12-01T15:02:21.430Z,90.90
2022-12-01T15:05:23.071Z,91.70
2022-12-01T15:08:41.979Z,90.70
2022-12-01T15:11:53.878Z,92.60
2022-12-01T15:14:53.280Z,92.90
2022-12-01T15:17:52.868Z,92.50
2022-12-01T15:20:57.354Z,92.00
2022-12-01T15:24:05.917Z,91.70
2022-12-01T15:27:04.469Z,90.70
2022-12-01T15:31:03.799Z,91.20
2022-12-01T15:34:05.550Z,90.50
2022-12-01T15:37:09.868Z,90.30
2022-12-01T15:43:47.978Z,90.70
2022-12-01T15:46:48.431Z,90.70
2022-12-01T15:49:50.546Z,90.70
2022-12-01T15:52:50.152Z,90.70
2022-12-01T15:55:55.532Z,90.50
2022-12-01T15:59:20.627Z,90.70
2022-12-01T16:02:32.496Z,90.60
2022-12-01T16:05:34.857Z,90.70
2022-12-01T16:08:33.116Z,90.30
2022-12-01T16:11:32.886Z,90.30
2022-12-01T16:14:32.567Z,90.30
2022-12-01T16:17:43.922Z,89.90
2022-12-01T16:20:44.524Z,90.80
2022-12-01T16:23:43.490Z,91.30
2022-12-01T16:26:52.338Z,91.10
2022-12-01T16:29:56.535Z,91.00
2022-12-01T16:33:03.437Z,90.90
2022-12-01T16:36:04.486Z,90.30
2022-12-01T16:39:08.361Z,90.20
2022-12-01T16:42:06.614Z,90.10
2022-12-01T16:45:04.675Z,90.60
2022-12-01T16:48:09.003Z,90.30
2022-12-01T16:51:08.706Z,90.20
2022-12-01T16:54:07.454Z,90.00
2022-12-01T16:57:05.393Z,89.10
2022-12-01T17:00:04.196Z,90.10
2022-12-01T17:03:02.379Z,88.70
2022-12-01T17:06:02.452Z,88.60
2022-12-01T17:09:00.928Z,88.30
2022-12-01T17:12:01.904Z,87.20
2022-12-01T17:14:59.753Z,87.70
2022-12-01T17:17:57.895Z,87.20
2022-12-01T17:21:03.282Z,87.70
2022-12-01T17:24:01.367Z,88.10
2022-12-01T17:26:59.334Z,86.90
2022-12-01T17:29:59.443Z,86.60
2022-12-01T17:32:58.303Z,85.40
2022-12-01T17:35:56.305Z,85.60
2022-12-01T17:38:54.671Z,86.20
2022-12-01T17:41:55.284Z,85.70
2022-12-01T17:44:53.107Z,84.70
2022-12-01T17:47:51.293Z,84.50
2022-12-01T17:50:49.096Z,80.10
2022-12-01T17:53:47.155Z,81.10
2022-12-01T17:56:44.974Z,81.50
2022-12-01T17:59:42.929Z,81.00
2022-12-01T18:02:40.818Z,81.90
2022-12-01T18:05:39.246Z,82.90
2022-12-01T18:08:38.162Z,83.00
2022-12-01T18:11:36.162Z,83.50
2022-12-01T18:14:35.103Z,83.60
2022-12-01T18:17:33.044Z,83.60
2022-12-01T18:20:30.836Z,83.50
2022-12-01T18:23:28.769Z,84.00
2022-12-01T18:26:28.365Z,85.00
2022-12-01T18:29:26.541Z,85.90
2022-12-01T18:32:24.384Z,86.70
2022-12-01T18:35:23.102Z,86.20
2022-12-01T18:38:25.428Z,85.30
2022-12-01T18:41:23.468Z,85.60
2022-12-01T18:44:21.447Z,85.40
2022-12-01T18:47:19.456Z,84.70
2022-12-01T18:50:17.378Z,83.20
2022-12-01T18:53:15.395Z,82.80
2022-12-01T18:56:15.355Z,83.00
2022-12-01T18:59:15.198Z,83.20
2022-12-01T19:02:13.054Z,83.00
2022-12-01T19:05:11.290Z,84.90
2022-12-01T19:08:09.133Z,86.10
2022-12-01T19:11:07.796Z,86.40
2022-12-01T19:14:06.032Z,86.20
2022-12-01T19:17:04.028Z,86.30
2022-12-01T19:20:01.907Z,85.30
2022-12-01T19:23:00.132Z,85.70
2022-12-01T19:25:58.057Z,87.50
2022-12-01T19:28:56.030Z,88.50
2022-12-01T19:31:54.050Z,89.00
2022-12-01T19:34:52.258Z,89.70
2022-12-01T19:37:51.937Z,89.70
2022-12-01T19:40:50.844Z,89.00
2022-12-01T19:43:49.101Z,87.80
2022-12-01T19:46:47.072Z,87.70
2022-12-01T19:49:44.907Z,87.00
2022-12-01T19:52:42.962Z,88.20
2022-12-01T19:55:40.845Z,88.40
2022-12-01T19:58:39.001Z,90.30
2022-12-01T20:01:36.864Z,90.50
2022-12-01T20:04:35.050Z,90.80
2022-12-01T20:07:32.948Z,90.20
2022-12-01T20:10:31.081Z,88.70
2022-12-01T20:13:30.679Z,88.30
2022-12-01T20:16:31.167Z,88.50
2022-12-01T20:19:29.106Z,88.00
2022-12-01T20:22:27.081Z,86.60
2022-12-01T20:25:24.975Z,82.50
2022-12-01T20:28:22.930Z,79.70
2022-12-01T20:31:24.976Z,77.50
2022-12-01T20:34:27.573Z,75.50
2022-12-01T20:37:25.409Z,75.00
2022-12-01T20:40:23.546Z,73.90
2022-12-01T20:43:23.929Z,82.00
2022-12-01T20:46:23.220Z,84.00
2022-12-01T20:49:21.700Z,84.10
2022-12-01T20:52:19.749Z,82.50
2022-12-01T20:55:18.336Z,80.70
2022-12-01T20:58:16.304Z,84.50
2022-12-01T21:04:28.593Z,87.80
2022-12-01T21:07:26.581Z,89.00
2022-12-01T21:10:24.723Z,90.00
2022-12-01T21:13:40.332Z,90.20
2022-12-01T21:16:41.759Z,89.80
2022-12-01T21:19:50.833Z,89.00
2022-12-01T21:22:51.014Z,89.20
2022-12-01T21:25:51.409Z,89.20
2022-12-01T21:28:49.361Z,89.20
2022-12-01T21:31:49.397Z,88.50
2022-12-01T21:34:49.107Z,88.70
2022-12-01T21:37:48.614Z,88.50
2022-12-01T21:40:47.467Z,89.00
2022-12-01T21:43:45.579Z,88.50
2022-12-01T21:46:44.528Z,89.00
2022-12-01T21:49:42.587Z,88.70
2022-12-01T21:52:42.794Z,87.80
2022-12-01T21:55:43.675Z,87.60
2022-12-01T21:58:41.611Z,87.80
2022-12-01T22:01:41.368Z,86.50
2022-12-01T22:04:41.774Z,83.40
2022-12-01T22:07:39.631Z,82.30
2022-12-01T22:10:58.662Z,80.20
2022-12-01T22:14:12.152Z,78.80
2022-12-01T22:17:21.648Z,78.00
2022-12-01T22:20:23.636Z,77.40
2022-12-01T22:23:22.756Z,75.50
2022-12-01T22:26:21.856Z,75.60
2022-12-01T22:29:44.391Z,75.00
2022-12-01T22:32:59.808Z,74.20
2022-12-01T22:35:57.775Z,73.20
2022-12-01T22:38:56.883Z,72.50
2022-12-01T22:41:59.703Z,72.80
2022-12-01T22:45:03.855Z,74.00
2022-12-01T22:48:05.204Z,75.00
2022-12-01T22:51:21.795Z,73.90
2022-12-01T22:54:29.983Z,73.50
2022-12-01T22:57:33.681Z,72.90
2022-12-01T23:00:31.791Z,71.70
2022-12-01T23:03:29.659Z,71.50
2022-12-01T23:06:58.306Z,70.90
2022-12-01T23:10:14.883Z,70.20
2022-12-01T23:13:19.390Z,71.50
2022-12-01T23:16:17.269Z,72.50
2022-12-01T23:19:15.265Z,72.70
2022-12-01T23:22:13.428Z,72.80
2022-12-01T23:25:15.763Z,72.80
2022-12-01T23:28:14.557Z,73.60
2022-12-01T23:31:12.774Z,73.60
2022-12-01T23:34:15.892Z,72.60
2022-12-01T23:37:34.706Z,74.50
2022-12-01T23:40:36.449Z,75.20
2022-12-01T23:43:38.297Z,77.50
2022-12-01T23:46:37.364Z,84.70
2022-12-01T23:49:36.850Z,85.10
2022-12-01T23:52:37.485Z,85.90
2022-12-01T23:55:35.571Z,86.10
2022-12-01T23:58:34.377Z,85.70
